sensor_id;sensor_type;location;lat;lon;timestamp;pressure;altitude;pressure_sealevel;temperature;humidity
55914;BME280;58179;48.776;9.124;2023-06-14T00:01:04;96839.69;;;16.77;55.26
55914;BME280;58179;48.776;9.124;2023-06-14T00:03:32;96844.84;;;16.74;56.37
55914;BME280;58179;48.776;9.124;2023-06-14T00:06:00;96842.47;;;16.72;56.58
55914;BME280;58179;48.776;9.124;2023-06-14T00:08:26;96837.94;;;16.73;56.82
55914;BME280;58179;48.776;9.124;2023-06-14T00:10:52;96840.59;;;16.73;56.57
55914;BME280;58179;48.776;9.124;2023-06-14T00:13:19;96836.47;;;16.67;56.97
55914;BME280;58179;48.776;9.124;2023-06-14T00:15:46;96843.19;;;16.64;56.46
55914;BME280;58179;48.776;9.124;2023-06-14T00:18:13;96832.22;;;16.66;56.17
55914;BME280;58179;48.776;9.124;2023-06-14T00:20:40;96836.56;;;16.61;56.06
55914;BME280;58179;48.776;9.124;2023-06-14T00:23:09;96839.97;;;16.53;57.37
55914;BME280;58179;48.776;9.124;2023-06-14T00:25:35;96839.16;;;16.53;57.01
55914;BME280;58179;48.776;9.124;2023-06-14T00:28:01;96839.25;;;16.48;57.29
55914;BME280;58179;48.776;9.124;2023-06-14T00:30:27;96844.44;;;16.44;57.33
55914;BME280;58179;48.776;9.124;2023-06-14T00:32:56;96845.41;;;16.48;56.29
55914;BME280;58179;48.776;9.124;2023-06-14T00:35:23;96843.75;;;16.39;57.20
55914;BME280;58179;48.776;9.124;2023-06-14T00:37:49;96841.09;;;16.39;56.16
55914;BME280;58179;48.776;9.124;2023-06-14T00:40:17;96843.19;;;16.28;56.76
55914;BME280;58179;48.776;9.124;2023-06-14T00:42:46;96848.44;;;16.19;57.06
55914;BME280;58179;48.776;9.124;2023-06-14T00:45:13;96841.63;;;16.13;57.93
55914;BME280;58179;48.776;9.124;2023-06-14T00:47:41;96844.56;;;16.25;55.93
55914;BME280;58179;48.776;9.124;2023-06-14T00:50:09;96847.94;;;16.17;57.06
55914;BME280;58179;48.776;9.124;2023-06-14T00:52:38;96843.31;;;16.09;57.63
55914;BME280;58179;48.776;9.124;2023-06-14T00:55:05;96838.59;;;16.06;57.96
55914;BME280;58179;48.776;9.124;2023-06-14T00:57:33;96836.63;;;15.98;58.93
55914;BME280;58179;48.776;9.124;2023-06-14T01:00:04;96839.38;;;16.07;58.03
55914;BME280;58179;48.776;9.124;2023-06-14T01:02:36;96837.97;;;16.09;56.56
55914;BME280;58179;48.776;9.124;2023-06-14T01:05:03;96833.44;;;15.96;58.15
55914;BME280;58179;48.776;9.124;2023-06-14T01:07:40;96833.06;;;15.89;59.44
55914;BME280;58179;48.776;9.124;2023-06-14T01:10:20;96836.00;;;15.87;59.66
55914;BME280;58179;48.776;9.124;2023-06-14T01:12:55;96832.25;;;15.88;59.66
55914;BME280;58179;48.776;9.124;2023-06-14T01:15:24;96838.19;;;15.99;57.99
55914;BME280;58179;48.776;9.124;2023-06-14T01:17:53;96840.94;;;15.94;58.12
55914;BME280;58179;48.776;9.124;2023-06-14T01:20:29;96840.78;;;15.91;58.43
55914;BME280;58179;48.776;9.124;2023-06-14T01:23:00;96852.66;;;15.84;58.32
55914;BME280;58179;48.776;9.124;2023-06-14T01:25:28;96848.97;;;15.80;57.94
55914;BME280;58179;48.776;9.124;2023-06-14T01:27:58;96848.88;;;15.72;58.59
55914;BME280;58179;48.776;9.124;2023-06-14T01:30:26;96856.97;;;15.67;59.59
55914;BME280;58179;48.776;9.124;2023-06-14T01:32:54;96852.34;;;15.72;58.61
55914;BME280;58179;48.776;9.124;2023-06-14T01:35:21;96846.72;;;15.60;59.53
55914;BME280;58179;48.776;9.124;2023-06-14T01:37:48;96847.00;;;15.59;59.46
55914;BME280;58179;48.776;9.124;2023-06-14T01:40:18;96851.13;;;15.51;60.53
55914;BME280;58179;48.776;9.124;2023-06-14T01:42:47;96853.91;;;15.60;58.35
55914;BME280;58179;48.776;9.124;2023-06-14T01:45:14;96846.16;;;15.44;60.17
55914;BME280;58179;48.776;9.124;2023-06-14T01:47:41;96843.38;;;15.36;61.28
55914;BME280;58179;48.776;9.124;2023-06-14T01:50:09;96843.50;;;15.31;62.16
55914;BME280;58179;48.776;9.124;2023-06-14T01:52:36;96837.38;;;15.30;61.99
55914;BME280;58179;48.776;9.124;2023-06-14T01:55:02;96846.34;;;15.34;61.71
55914;BME280;58179;48.776;9.124;2023-06-14T01:57:30;96848.31;;;15.29;61.81
55914;BME280;58179;48.776;9.124;2023-06-14T01:59:56;96851.59;;;15.26;62.27
55914;BME280;58179;48.776;9.124;2023-06-14T02:02:22;96845.75;;;15.24;62.97
55914;BME280;58179;48.776;9.124;2023-06-14T02:04:48;96848.91;;;15.26;62.34
55914;BME280;58179;48.776;9.124;2023-06-14T02:07:15;96845.16;;;15.27;62.45
55914;BME280;58179;48.776;9.124;2023-06-14T02:09:41;96839.91;;;15.22;61.97
55914;BME280;58179;48.776;9.124;2023-06-14T02:12:08;96840.00;;;15.17;62.28
55914;BME280;58179;48.776;9.124;2023-06-14T02:14:36;96846.94;;;15.18;61.95
55914;BME280;58179;48.776;9.124;2023-06-14T02:17:02;96853.41;;;15.11;61.68
55914;BME280;58179;48.776;9.124;2023-06-14T02:19:28;96850.66;;;15.03;62.54
55914;BME280;58179;48.776;9.124;2023-06-14T02:21:54;96852.00;;;15.00;63.14
55914;BME280;58179;48.776;9.124;2023-06-14T02:24:20;96848.66;;;14.95;63.59
55914;BME280;58179;48.776;9.124;2023-06-14T02:26:47;96844.91;;;14.96;63.08
55914;BME280;58179;48.776;9.124;2023-06-14T02:29:13;96846.84;;;14.90;63.79
55914;BME280;58179;48.776;9.124;2023-06-14T02:31:42;96846.03;;;14.90;63.36
55914;BME280;58179;48.776;9.124;2023-06-14T02:34:08;96852.69;;;14.92;62.75
55914;BME280;58179;48.776;9.124;2023-06-14T02:36:35;96850.47;;;14.81;63.68
55914;BME280;58179;48.776;9.124;2023-06-14T02:39:01;96852.22;;;14.71;64.60
55914;BME280;58179;48.776;9.124;2023-06-14T02:41:27;96851.69;;;14.69;65.14
55914;BME280;58179;48.776;9.124;2023-06-14T02:43:53;96848.53;;;14.67;65.64
55914;BME280;58179;48.776;9.124;2023-06-14T02:46:20;96845.88;;;14.67;66.24
55914;BME280;58179;48.776;9.124;2023-06-14T02:48:47;96851.41;;;14.71;65.56
55914;BME280;58179;48.776;9.124;2023-06-14T02:51:13;96851.94;;;14.73;64.77
55914;BME280;58179;48.776;9.124;2023-06-14T02:53:40;96840.81;;;14.66;65.37
55914;BME280;58179;48.776;9.124;2023-06-14T02:56:06;96850.41;;;14.67;65.24
55914;BME280;58179;48.776;9.124;2023-06-14T02:58:32;96844.28;;;14.66;64.95
55914;BME280;58179;48.776;9.124;2023-06-14T03:00:59;96844.16;;;14.58;65.91
55914;BME280;58179;48.776;9.124;2023-06-14T03:03:29;96845.81;;;14.54;66.70
55914;BME280;58179;48.776;9.124;2023-06-14T03:05:57;96855.94;;;14.52;66.59
55914;BME280;58179;48.776;9.124;2023-06-14T03:08:23;96847.97;;;14.52;66.42
55914;BME280;58179;48.776;9.124;2023-06-14T03:10:53;96852.22;;;14.53;66.11
55914;BME280;58179;48.776;9.124;2023-06-14T03:13:19;96856.84;;;14.47;66.30
55914;BME280;58179;48.776;9.124;2023-06-14T03:15:47;96853.47;;;14.42;66.46
55914;BME280;58179;48.776;9.124;2023-06-14T03:18:16;96847.66;;;14.34;67.64
55914;BME280;58179;48.776;9.124;2023-06-14T03:20:43;96856.72;;;14.33;67.95
55914;BME280;58179;48.776;9.124;2023-06-14T03:23:12;96855.66;;;14.34;67.35
55914;BME280;58179;48.776;9.124;2023-06-14T03:25:39;96855.16;;;14.32;66.63
55914;BME280;58179;48.776;9.124;2023-06-14T03:28:08;96866.31;;;14.34;66.50
55914;BME280;58179;48.776;9.124;2023-06-14T03:30:34;96866.94;;;14.26;66.87
55914;BME280;58179;48.776;9.124;2023-06-14T03:33:00;96870.41;;;14.27;66.74
55914;BME280;58179;48.776;9.124;2023-06-14T03:35:29;96869.38;;;14.23;67.40
55914;BME280;58179;48.776;9.124;2023-06-14T03:37:55;96876.09;;;14.20;68.02
55914;BME280;58179;48.776;9.124;2023-06-14T03:40:23;96877.59;;;14.26;67.33
55914;BME280;58179;48.776;9.124;2023-06-14T03:42:52;96874.94;;;14.26;66.65
55914;BME280;58179;48.776;9.124;2023-06-14T03:45:18;96881.69;;;14.19;67.36
55914;BME280;58179;48.776;9.124;2023-06-14T03:47:44;96885.63;;;14.21;67.08
55914;BME280;58179;48.776;9.124;2023-06-14T03:50:11;96891.63;;;14.13;67.63
55914;BME280;58179;48.776;9.124;2023-06-14T03:52:39;96896.44;;;14.11;68.14
55914;BME280;58179;48.776;9.124;2023-06-14T03:55:08;96893.19;;;14.14;68.61
55914;BME280;58179;48.776;9.124;2023-06-14T03:57:36;96898.00;;;14.12;69.24
55914;BME280;58179;48.776;9.124;2023-06-14T04:00:03;96900.69;;;14.12;69.76
55914;BME280;58179;48.776;9.124;2023-06-14T04:02:31;96897.44;;;14.15;70.07
55914;BME280;58179;48.776;9.124;2023-06-14T04:04:58;96897.16;;;14.17;69.84
55914;BME280;58179;48.776;9.124;2023-06-14T04:07:24;96904.34;;;14.16;70.41
55914;BME280;58179;48.776;9.124;2023-06-14T04:09:51;96908.31;;;14.19;71.05
55914;BME280;58179;48.776;9.124;2023-06-14T04:12:17;96911.47;;;14.21;71.79
55914;BME280;58179;48.776;9.124;2023-06-14T04:14:44;96908.75;;;14.26;71.38
55914;BME280;58179;48.776;9.124;2023-06-14T04:17:11;96918.00;;;14.28;71.94
55914;BME280;58179;48.776;9.124;2023-06-14T04:19:37;96918.25;;;14.32;72.39
55914;BME280;58179;48.776;9.124;2023-06-14T04:22:04;96923.50;;;14.37;72.89
55914;BME280;58179;48.776;9.124;2023-06-14T04:24:30;96919.44;;;14.45;71.99
55914;BME280;58179;48.776;9.124;2023-06-14T04:26:58;96918.66;;;14.44;73.07
55914;BME280;58179;48.776;9.124;2023-06-14T04:29:25;96928.75;;;14.47;73.25
55914;BME280;58179;48.776;9.124;2023-06-14T04:31:54;96915.66;;;14.51;74.14
55914;BME280;58179;48.776;9.124;2023-06-14T04:34:24;96922.50;;;14.57;74.40
55914;BME280;58179;48.776;9.124;2023-06-14T04:36:55;96924.56;;;14.60;74.84
55914;BME280;58179;48.776;9.124;2023-06-14T04:39:22;96924.50;;;14.65;75.71
55914;BME280;58179;48.776;9.124;2023-06-14T04:41:49;96920.97;;;14.69;75.90
55914;BME280;58179;48.776;9.124;2023-06-14T04:44:19;96922.19;;;14.77;76.69
55914;BME280;58179;48.776;9.124;2023-06-14T04:46:46;96919.44;;;14.82;76.67
55914;BME280;58179;48.776;9.124;2023-06-14T04:49:13;96926.00;;;14.90;77.17
55914;BME280;58179;48.776;9.124;2023-06-14T04:51:44;96916.56;;;14.97;77.20
55914;BME280;58179;48.776;9.124;2023-06-14T04:54:11;96929.50;;;15.04;77.58
55914;BME280;58179;48.776;9.124;2023-06-14T04:56:41;96940.31;;;15.13;77.92
55914;BME280;58179;48.776;9.124;2023-06-14T04:59:08;96944.19;;;15.20;79.15
55914;BME280;58179;48.776;9.124;2023-06-14T05:01:35;96953.91;;;15.30;80.35
55914;BME280;58179;48.776;9.124;2023-06-14T05:04:01;96951.56;;;15.42;81.61
55914;BME280;58179;48.776;9.124;2023-06-14T05:06:29;96953.28;;;15.52;82.05
55914;BME280;58179;48.776;9.124;2023-06-14T05:08:56;96954.22;;;15.61;82.33
55914;BME280;58179;48.776;9.124;2023-06-14T05:11:22;96964.72;;;15.71;82.72
55914;BME280;58179;48.776;9.124;2023-06-14T05:13:53;96959.97;;;15.81;82.84
55914;BME280;58179;48.776;9.124;2023-06-14T05:16:19;96958.22;;;15.91;82.88
55914;BME280;58179;48.776;9.124;2023-06-14T05:18:46;96954.56;;;16.00;83.00
55914;BME280;58179;48.776;9.124;2023-06-14T05:21:13;96960.50;;;16.11;82.73
55914;BME280;58179;48.776;9.124;2023-06-14T05:23:44;96965.94;;;16.19;82.37
55914;BME280;58179;48.776;9.124;2023-06-14T05:26:11;96966.34;;;16.26;82.01
55914;BME280;58179;48.776;9.124;2023-06-14T05:28:37;96965.63;;;16.35;81.58
55914;BME280;58179;48.776;9.124;2023-06-14T05:31:03;96964.94;;;16.43;81.20
55914;BME280;58179;48.776;9.124;2023-06-14T05:33:29;96963.75;;;16.49;80.40
55914;BME280;58179;48.776;9.124;2023-06-14T05:35:56;96966.00;;;16.55;79.71
55914;BME280;58179;48.776;9.124;2023-06-14T05:38:22;96960.28;;;16.62;78.37
55914;BME280;58179;48.776;9.124;2023-06-14T05:40:49;96972.75;;;16.67;76.81
55914;BME280;58179;48.776;9.124;2023-06-14T05:43:16;96966.81;;;16.70;75.98
55914;BME280;58179;48.776;9.124;2023-06-14T05:45:42;96969.69;;;16.73;75.81
55914;BME280;58179;48.776;9.124;2023-06-14T05:48:08;96977.13;;;16.76;75.23
55914;BME280;58179;48.776;9.124;2023-06-14T05:50:34;96967.97;;;16.77;74.57
55914;BME280;58179;48.776;9.124;2023-06-14T05:53:01;96968.19;;;16.81;74.80
55914;BME280;58179;48.776;9.124;2023-06-14T05:55:27;96971.34;;;16.83;73.97
55914;BME280;58179;48.776;9.124;2023-06-14T05:57:54;96969.16;;;16.85;74.08
55914;BME280;58179;48.776;9.124;2023-06-14T06:00:21;96967.47;;;16.89;74.18
55914;BME280;58179;48.776;9.124;2023-06-14T06:02:47;96969.53;;;16.92;74.14
55914;BME280;58179;48.776;9.124;2023-06-14T06:05:15;96966.56;;;16.93;73.67
55914;BME280;58179;48.776;9.124;2023-06-14T06:07:41;96968.13;;;16.94;73.32
55914;BME280;58179;48.776;9.124;2023-06-14T06:10:09;96975.88;;;16.96;73.42
55914;BME280;58179;48.776;9.124;2023-06-14T06:12:35;96972.56;;;16.99;73.52
55914;BME280;58179;48.776;9.124;2023-06-14T06:15:03;96974.66;;;17.02;73.56
55914;BME280;58179;48.776;9.124;2023-06-14T06:17:30;96974.84;;;17.06;73.71
55914;BME280;58179;48.776;9.124;2023-06-14T06:19:56;96978.19;;;17.11;73.61
55914;BME280;58179;48.776;9.124;2023-06-14T06:22:25;96973.81;;;17.15;73.17
55914;BME280;58179;48.776;9.124;2023-06-14T06:24:51;96984.41;;;17.20;72.80
55914;BME280;58179;48.776;9.124;2023-06-14T06:27:17;96981.09;;;17.23;72.38
55914;BME280;58179;48.776;9.124;2023-06-14T06:29:45;96981.81;;;17.29;72.11
55914;BME280;58179;48.776;9.124;2023-06-14T06:32:12;96976.03;;;17.35;71.76
55914;BME280;58179;48.776;9.124;2023-06-14T06:34:38;96986.28;;;17.42;71.32
55914;BME280;58179;48.776;9.124;2023-06-14T06:37:05;96989.63;;;17.48;71.00
55914;BME280;58179;48.776;9.124;2023-06-14T06:39:32;96989.50;;;17.53;70.84
55914;BME280;58179;48.776;9.124;2023-06-14T06:41:58;96993.16;;;17.57;70.72
55914;BME280;58179;48.776;9.124;2023-06-14T06:44:24;96990.66;;;17.60;70.72
55914;BME280;58179;48.776;9.124;2023-06-14T06:46:50;96984.44;;;17.65;68.79
55914;BME280;58179;48.776;9.124;2023-06-14T06:49:18;96997.97;;;17.68;68.34
55914;BME280;58179;48.776;9.124;2023-06-14T06:51:53;96993.59;;;17.72;68.89
55914;BME280;58179;48.776;9.124;2023-06-14T06:54:24;97000.72;;;17.77;68.84
55914;BME280;58179;48.776;9.124;2023-06-14T06:56:51;97000.56;;;17.82;69.25
55914;BME280;58179;48.776;9.124;2023-06-14T06:59:17;97013.84;;;17.87;69.44
55914;BME280;58179;48.776;9.124;2023-06-14T07:01:43;97006.31;;;17.89;69.50
55914;BME280;58179;48.776;9.124;2023-06-14T07:04:09;97017.47;;;17.91;69.22
55914;BME280;58179;48.776;9.124;2023-06-14T07:06:37;97022.25;;;17.94;69.15
55914;BME280;58179;48.776;9.124;2023-06-14T07:09:04;97020.81;;;17.97;69.37
55914;BME280;58179;48.776;9.124;2023-06-14T07:11:33;97023.69;;;18.00;68.11
55914;BME280;58179;48.776;9.124;2023-06-14T07:14:00;97027.66;;;18.03;68.33
55914;BME280;58179;48.776;9.124;2023-06-14T07:16:26;97022.44;;;18.06;68.74
55914;BME280;58179;48.776;9.124;2023-06-14T07:18:52;97026.09;;;18.10;69.27
55914;BME280;58179;48.776;9.124;2023-06-14T07:21:19;97031.63;;;18.14;68.16
55914;BME280;58179;48.776;9.124;2023-06-14T07:23:46;97020.78;;;18.19;68.46
55914;BME280;58179;48.776;9.124;2023-06-14T07:26:12;97020.94;;;18.23;66.10
55914;BME280;58179;48.776;9.124;2023-06-14T07:28:39;97034.03;;;18.24;66.83
55914;BME280;58179;48.776;9.124;2023-06-14T07:31:05;97038.47;;;18.29;66.97
55914;BME280;58179;48.776;9.124;2023-06-14T07:33:31;97047.94;;;18.35;66.94
55914;BME280;58179;48.776;9.124;2023-06-14T07:35:57;97038.81;;;18.36;65.41
55914;BME280;58179;48.776;9.124;2023-06-14T07:38:24;97045.59;;;18.42;65.93
55914;BME280;58179;48.776;9.124;2023-06-14T07:40:51;97045.31;;;18.43;65.79
55914;BME280;58179;48.776;9.124;2023-06-14T07:43:17;97048.66;;;18.49;66.02
55914;BME280;58179;48.776;9.124;2023-06-14T07:45:44;97047.41;;;18.55;65.49
55914;BME280;58179;48.776;9.124;2023-06-14T07:48:10;97041.78;;;18.57;64.37
55914;BME280;58179;48.776;9.124;2023-06-14T07:50:36;97052.34;;;18.62;64.77
55914;BME280;58179;48.776;9.124;2023-06-14T07:53:02;97059.16;;;18.68;65.45
55914;BME280;58179;48.776;9.124;2023-06-14T07:55:28;97047.81;;;18.71;65.61
55914;BME280;58179;48.776;9.124;2023-06-14T07:57:56;97042.28;;;18.76;65.46
55914;BME280;58179;48.776;9.124;2023-06-14T08:00:22;97048.31;;;18.81;64.87
55914;BME280;58179;48.776;9.124;2023-06-14T08:02:48;97056.06;;;18.91;65.19
55914;BME280;58179;48.776;9.124;2023-06-14T08:05:15;97050.41;;;19.02;65.38
55914;BME280;58179;48.776;9.124;2023-06-14T08:07:41;97050.41;;;19.10;64.73
55914;BME280;58179;48.776;9.124;2023-06-14T08:10:08;97051.50;;;19.18;63.42
55914;BME280;58179;48.776;9.124;2023-06-14T08:12:35;97053.09;;;19.27;63.84
55914;BME280;58179;48.776;9.124;2023-06-14T08:15:04;97060.56;;;19.39;63.60
55914;BME280;58179;48.776;9.124;2023-06-14T08:17:31;97057.09;;;19.47;63.48
55914;BME280;58179;48.776;9.124;2023-06-14T08:19:57;97052.50;;;19.56;63.35
55914;BME280;58179;48.776;9.124;2023-06-14T08:22:23;97056.94;;;19.61;58.70
55914;BME280;58179;48.776;9.124;2023-06-14T08:24:54;97054.25;;;19.69;61.02
55914;BME280;58179;48.776;9.124;2023-06-14T08:27:20;97048.41;;;19.76;61.45
55914;BME280;58179;48.776;9.124;2023-06-14T08:29:46;97054.53;;;19.85;60.75
55914;BME280;58179;48.776;9.124;2023-06-14T08:32:14;97056.09;;;19.95;60.83
55914;BME280;58179;48.776;9.124;2023-06-14T08:34:42;97056.56;;;20.05;60.97
55914;BME280;58179;48.776;9.124;2023-06-14T08:37:08;97054.97;;;20.13;60.46
55914;BME280;58179;48.776;9.124;2023-06-14T08:39:35;97061.25;;;20.26;60.91
55914;BME280;58179;48.776;9.124;2023-06-14T08:42:02;97063.63;;;20.36;60.82
55914;BME280;58179;48.776;9.124;2023-06-14T08:44:29;97061.53;;;20.41;60.53
55914;BME280;58179;48.776;9.124;2023-06-14T08:46:56;97062.75;;;20.53;61.11
55914;BME280;58179;48.776;9.124;2023-06-14T08:49:26;97053.06;;;20.60;59.49
55914;BME280;58179;48.776;9.124;2023-06-14T08:51:57;97057.63;;;20.68;58.26
55914;BME280;58179;48.776;9.124;2023-06-14T08:54:25;97068.03;;;20.78;58.18
55914;BME280;58179;48.776;9.124;2023-06-14T08:56:53;97073.34;;;20.87;58.77
55914;BME280;58179;48.776;9.124;2023-06-14T08:59:24;97070.16;;;20.94;58.89
55914;BME280;58179;48.776;9.124;2023-06-14T09:01:51;97070.75;;;20.99;57.92
55914;BME280;58179;48.776;9.124;2023-06-14T09:04:18;97072.28;;;21.09;57.79
55914;BME280;58179;48.776;9.124;2023-06-14T09:06:46;97062.44;;;21.13;57.70
55914;BME280;58179;48.776;9.124;2023-06-14T09:09:19;97068.13;;;21.20;57.34
55914;BME280;58179;48.776;9.124;2023-06-14T09:11:45;97070.09;;;21.32;57.39
55914;BME280;58179;48.776;9.124;2023-06-14T09:14:12;97065.97;;;21.34;57.26
55914;BME280;58179;48.776;9.124;2023-06-14T09:16:38;97073.53;;;21.41;56.91
55914;BME280;58179;48.776;9.124;2023-06-14T09:19:06;97065.03;;;21.51;57.06
55914;BME280;58179;48.776;9.124;2023-06-14T09:21:35;97065.28;;;21.58;56.96
55914;BME280;58179;48.776;9.124;2023-06-14T09:24:03;97075.88;;;21.63;55.81
55914;BME280;58179;48.776;9.124;2023-06-14T09:26:32;97076.72;;;21.76;56.88
55914;BME280;58179;48.776;9.124;2023-06-14T09:28:58;97071.72;;;21.86;56.79
55914;BME280;58179;48.776;9.124;2023-06-14T09:31:25;97069.28;;;21.93;56.08
55914;BME280;58179;48.776;9.124;2023-06-14T09:33:52;97080.34;;;22.00;56.37
55914;BME280;58179;48.776;9.124;2023-06-14T09:36:22;97075.66;;;22.10;56.33
55914;BME280;58179;48.776;9.124;2023-06-14T09:38:53;97073.53;;;22.15;56.24
55914;BME280;58179;48.776;9.124;2023-06-14T09:41:27;97070.06;;;22.27;56.30
55914;BME280;58179;48.776;9.124;2023-06-14T09:43:57;97075.25;;;22.32;55.58
55914;BME280;58179;48.776;9.124;2023-06-14T09:46:27;97070.66;;;22.32;53.45
55914;BME280;58179;48.776;9.124;2023-06-14T09:48:54;97068.19;;;22.39;54.37
55914;BME280;58179;48.776;9.124;2023-06-14T09:51:22;97068.84;;;22.49;54.19
55914;BME280;58179;48.776;9.124;2023-06-14T09:53:50;97070.00;;;22.60;54.93
55914;BME280;58179;48.776;9.124;2023-06-14T09:56:19;97073.72;;;22.67;53.56
55914;BME280;58179;48.776;9.124;2023-06-14T09:58:51;97076.34;;;22.76;51.07
55914;BME280;58179;48.776;9.124;2023-06-14T10:01:21;97074.31;;;22.85;51.77
55914;BME280;58179;48.776;9.124;2023-06-14T10:03:48;97065.41;;;22.97;52.05
55914;BME280;58179;48.776;9.124;2023-06-14T10:06:17;97063.94;;;23.11;48.27
55914;BME280;58179;48.776;9.124;2023-06-14T10:08:44;97064.81;;;23.15;47.73
55914;BME280;58179;48.776;9.124;2023-06-14T10:11:12;97063.34;;;23.30;48.35
55914;BME280;58179;48.776;9.124;2023-06-14T10:13:39;97070.53;;;23.50;49.69
55914;BME280;58179;48.776;9.124;2023-06-14T10:16:11;97062.44;;;23.78;46.55
55914;BME280;58179;48.776;9.124;2023-06-14T10:18:48;97062.34;;;23.75;47.04
55914;BME280;58179;48.776;9.124;2023-06-14T10:21:21;97064.53;;;23.85;46.78
55914;BME280;58179;48.776;9.124;2023-06-14T10:23:50;97069.94;;;23.85;47.28
55914;BME280;58179;48.776;9.124;2023-06-14T10:26:21;97063.00;;;24.00;45.13
55914;BME280;58179;48.776;9.124;2023-06-14T10:28:57;97062.66;;;24.01;46.80
55914;BME280;58179;48.776;9.124;2023-06-14T10:31:40;97055.78;;;24.04;46.51
55914;BME280;58179;48.776;9.124;2023-06-14T10:34:07;97046.28;;;24.10;46.23
55914;BME280;58179;48.776;9.124;2023-06-14T10:36:33;97055.09;;;24.07;46.60
55914;BME280;58179;48.776;9.124;2023-06-14T10:39:05;97049.81;;;23.82;46.20
55914;BME280;58179;48.776;9.124;2023-06-14T10:41:37;97052.34;;;23.63;46.64
55914;BME280;58179;48.776;9.124;2023-06-14T10:44:38;97057.88;;;23.67;47.82
55914;BME280;58179;48.776;9.124;2023-06-14T10:47:07;97052.78;;;23.93;46.61
55914;BME280;58179;48.776;9.124;2023-06-14T10:49:42;97046.78;;;24.00;43.32
55914;BME280;58179;48.776;9.124;2023-06-14T10:52:12;97058.38;;;24.00;44.25
55914;BME280;58179;48.776;9.124;2023-06-14T10:55:06;97049.03;;;23.82;44.74
55914;BME280;58179;48.776;9.124;2023-06-14T10:57:44;97062.81;;;23.65;45.97
55914;BME280;58179;48.776;9.124;2023-06-14T11:00:18;97053.81;;;23.61;46.93
55914;BME280;58179;48.776;9.124;2023-06-14T11:05:53;97059.59;;;23.47;45.88
55914;BME280;58179;48.776;9.124;2023-06-14T11:08:45;97057.00;;;23.38;47.33
55914;BME280;58179;48.776;9.124;2023-06-14T11:11:17;97053.69;;;23.17;46.29
55914;BME280;58179;48.776;9.124;2023-06-14T11:13:46;97050.91;;;23.13;45.95
55914;BME280;58179;48.776;9.124;2023-06-14T11:16:13;97048.97;;;23.02;46.28
55914;BME280;58179;48.776;9.124;2023-06-14T11:18:40;97055.66;;;22.92;47.60
55914;BME280;58179;48.776;9.124;2023-06-14T11:21:08;97056.88;;;22.83;47.81
55914;BME280;58179;48.776;9.124;2023-06-14T11:23:37;97057.00;;;22.74;48.48
55914;BME280;58179;48.776;9.124;2023-06-14T11:26:03;97056.66;;;22.75;47.77
55914;BME280;58179;48.776;9.124;2023-06-14T11:28:38;97058.78;;;22.94;46.35
55914;BME280;58179;48.776;9.124;2023-06-14T11:31:06;97056.38;;;23.17;46.04
55914;BME280;58179;48.776;9.124;2023-06-14T11:33:33;97044.84;;;23.44;44.43
55914;BME280;58179;48.776;9.124;2023-06-14T11:36:02;97062.81;;;23.92;42.55
55914;BME280;58179;48.776;9.124;2023-06-14T11:38:30;97051.78;;;24.13;43.97
55914;BME280;58179;48.776;9.124;2023-06-14T11:40:59;97058.13;;;24.33;43.76
55914;BME280;58179;48.776;9.124;2023-06-14T11:43:26;97058.47;;;24.32;43.35
55914;BME280;58179;48.776;9.124;2023-06-14T11:45:53;97054.00;;;24.23;42.88
55914;BME280;58179;48.776;9.124;2023-06-14T11:48:21;97051.22;;;24.20;41.85
55914;BME280;58179;48.776;9.124;2023-06-14T11:50:50;97051.66;;;24.22;41.03
55914;BME280;58179;48.776;9.124;2023-06-14T11:53:17;97048.44;;;24.48;38.12
55914;BME280;58179;48.776;9.124;2023-06-14T11:55:45;97046.09;;;24.62;37.08
55914;BME280;58179;48.776;9.124;2023-06-14T11:58:13;97046.59;;;24.67;39.67
55914;BME280;58179;48.776;9.124;2023-06-14T12:00:40;97037.16;;;24.93;39.25
55914;BME280;58179;48.776;9.124;2023-06-14T12:03:07;97032.38;;;25.21;36.87
55914;BME280;58179;48.776;9.124;2023-06-14T12:05:36;97038.00;;;25.13;38.65
55914;BME280;58179;48.776;9.124;2023-06-14T12:08:11;97042.38;;;25.17;39.46
55914;BME280;58179;48.776;9.124;2023-06-14T12:10:44;97045.63;;;25.26;40.58
55914;BME280;58179;48.776;9.124;2023-06-14T12:13:10;97042.03;;;25.38;41.04
55914;BME280;58179;48.776;9.124;2023-06-14T12:15:37;97042.94;;;25.26;39.97
55914;BME280;58179;48.776;9.124;2023-06-14T12:18:06;97044.94;;;25.29;38.75
55914;BME280;58179;48.776;9.124;2023-06-14T12:20:35;97035.81;;;25.18;39.26
55914;BME280;58179;48.776;9.124;2023-06-14T12:23:04;97045.47;;;25.19;40.28
55914;BME280;58179;48.776;9.124;2023-06-14T12:25:31;97040.03;;;25.35;37.69
55914;BME280;58179;48.776;9.124;2023-06-14T12:28:05;97034.88;;;25.30;38.62
55914;BME280;58179;48.776;9.124;2023-06-14T12:30:32;97030.59;;;25.29;38.93
55914;BME280;58179;48.776;9.124;2023-06-14T12:32:58;97034.97;;;25.33;39.63
55914;BME280;58179;48.776;9.124;2023-06-14T12:35:24;97034.34;;;25.40;39.05
55914;BME280;58179;48.776;9.124;2023-06-14T12:37:50;97033.34;;;25.48;39.43
55914;BME280;58179;48.776;9.124;2023-06-14T12:40:17;97027.00;;;25.60;39.63
55914;BME280;58179;48.776;9.124;2023-06-14T12:42:45;97035.13;;;25.79;40.03
55914;BME280;58179;48.776;9.124;2023-06-14T12:45:16;97030.84;;;25.97;39.69
55914;BME280;58179;48.776;9.124;2023-06-14T12:47:42;97030.00;;;25.93;37.24
55914;BME280;58179;48.776;9.124;2023-06-14T12:50:09;97029.03;;;26.05;36.55
55914;BME280;58179;48.776;9.124;2023-06-14T12:52:35;97032.53;;;26.05;37.72
55914;BME280;58179;48.776;9.124;2023-06-14T12:55:05;97038.50;;;25.92;36.02
55914;BME280;58179;48.776;9.124;2023-06-14T12:57:31;97038.44;;;26.11;37.33
55914;BME280;58179;48.776;9.124;2023-06-14T12:59:59;97043.25;;;25.98;37.43
55914;BME280;58179;48.776;9.124;2023-06-14T13:02:27;97045.41;;;25.89;37.95
55914;BME280;58179;48.776;9.124;2023-06-14T13:04:53;97031.06;;;25.89;38.11
55914;BME280;58179;48.776;9.124;2023-06-14T13:07:19;97024.97;;;25.95;36.76